Time;durP1;ratioP1;P1;durP2;ratioP2;P2;SDS_P1;SDS_P2;PMS_P1;PMS_P2;Temp;Humidity;BMP_temperature;BMP_pressure;BME280_temperature;BME280_humidity;BME280_pressure;Samples;Min_cycle;Max_cycle;Signal;HPM_P1;HPM_P2
2019/10/01 00:01:20;;;;;;;5.2;2.6;;;;;;;12.07;80.34766;958.1057;;;;
2019/10/01 00:03:45;;;;;;;6.3;2.6;;;;;;;11.91;81.50684;958.1138;;;;
2019/10/01 00:06:10;;;;;;;5.1;2.4;;;;;;;12.04;80.23828;958.0515;;;;
2019/10/01 00:08:36;;;;;;;5.7;2.3;;;;;;;11.94;81.18848;958.0742;;;;
2019/10/01 00:11:01;;;;;;;4.3;2.4;;;;;;;11.89;81.90625;958.0898;;;;
2019/10/01 00:13:26;;;;;;;5.5;2.6;;;;;;;11.99;81.03711;958.0313;;;;
2019/10/01 00:15:51;;;;;;;5.1;2.4;;;;;;;12.01;81.20215;958.0005;;;;
2019/10/01 00:18:16;;;;;;;5.5;2.6;;;;;;;11.78;82.16211;958.0334;;;;
2019/10/01 00:20:42;;;;;;;4.6;2.6;;;;;;;11.73;81.94629;957.993;;;;
2019/10/01 00:23:07;;;;;;;3.5;2.3;;;;;;;11.83;81.95313;958.008;;;;
2019/10/01 00:25:32;;;;;;;5;2.3;;;;;;;11.84;82.08203;958.0268;;;;
2019/10/01 00:27:58;;;;;;;5;2.7;;;;;;;11.73;82.66211;957.9465;;;;
2019/10/01 00:30:23;;;;;;;5.1;2.4;;;;;;;11.81;82.07715;957.8819;;;;
2019/10/01 00:32:49;;;;;;;5;2.7;;;;;;;11.78;82.3584;957.8709;;;;
2019/10/01 00:35:13;;;;;;;5.4;2.4;;;;;;;11.69;82.53809;957.8855;;;;
2019/10/01 00:37:39;;;;;;;4.7;2.3;;;;;;;11.71;82.67969;957.8555;;;;
2019/10/01 00:40:04;;;;;;;6.3;2.5;;;;;;;11.88;82.54102;957.8016;;;;
2019/10/01 00:42:29;;;;;;;5;2.2;;;;;;;11.73;82.86914;957.6902;;;;
2019/10/01 00:44:55;;;;;;;5.1;2.3;;;;;;;11.81;82.21387;957.6868;;;;
2019/10/01 00:47:21;;;;;;;4.1;2.1;;;;;;;11.83;82.78418;957.6658;;;;
2019/10/01 00:49:46;;;;;;;4.8;2.4;;;;;;;11.8;82.52539;957.6917;;;;
2019/10/01 00:52:12;;;;;;;3.8;2.1;;;;;;;11.81;82.88477;957.6492;;;;
2019/10/01 00:54:36;;;;;;;6;2.2;;;;;;;11.74;83.01953;957.6584;;;;
2019/10/01 00:57:01;;;;;;;4.4;1.9;;;;;;;11.83;82.93457;957.6438;;;;
2019/10/01 00:59:26;;;;;;;6.1;2.5;;;;;;;11.84;83.06348;957.5418;;;;
2019/10/01 01:01:51;;;;;;;5.7;2.2;;;;;;;11.81;83.04688;957.49;;;;
2019/10/01 01:04:16;;;;;;;4.9;2.5;;;;;;;11.64;83.92383;957.5161;;;;
2019/10/01 01:06:41;;;;;;;6.2;2.5;;;;;;;11.81;83.05762;957.49;;;;
2019/10/01 01:09:07;;;;;;;5.7;2.5;;;;;;;11.66;83.13086;957.441;;;;
2019/10/01 01:11:32;;;;;;;4.5;2.3;;;;;;;11.62;83.29688;957.4423;;;;
2019/10/01 01:13:57;;;;;;;5.9;2.4;;;;;;;11.77;82.61133;957.413;;;;
2019/10/01 01:16:23;;;;;;;4.5;2.3;;;;;;;11.73;82.59082;957.4077;;;;
2019/10/01 01:18:48;;;;;;;5.9;2.6;;;;;;;11.65;83.14258;957.3586;;;;
2019/10/01 01:21:14;;;;;;;5.5;2.6;;;;;;;11.7;83.24316;957.2957;;;;
2019/10/01 01:23:39;;;;;;;6.3;2.3;;;;;;;11.46;84.27148;957.2194;;;;
2019/10/01 01:26:05;;;;;;;4.7;2.2;;;;;;;11.52;84.22559;957.2405;;;;
2019/10/01 01:28:30;;;;;;;5.8;2.5;;;;;;;11.43;84.4375;957.166;;;;
2019/10/01 01:30:54;;;;;;;3.9;2.2;;;;;;;11.58;83.52148;957.0942;;;;
2019/10/01 01:33:19;;;;;;;5.4;2.4;;;;;;;11.65;83.01563;957.0851;;;;
2019/10/01 01:35:47;;;;;;;4.9;2.2;;;;;;;11.67;82.67285;957.1174;;;;
2019/10/01 01:38:09;;;;;;;3.4;2.1;;;;;;;11.6;82.86719;957.0347;;;;
2019/10/01 01:40:34;;;;;;;4;2;;;;;;;11.6;83.27051;957.0363;;;;
2019/10/01 01:43:00;;;;;;;3.2;1.8;;;;;;;11.76;82.4248;956.9713;;;;
2019/10/01 01:45:24;;;;;;;3.9;2;;;;;;;11.64;83.21973;957.0059;;;;
2019/10/01 01:47:50;;;;;;;4;2.1;;;;;;;11.53;83.67188;956.9778;;;;
2019/10/01 01:50:15;;;;;;;4.1;2.2;;;;;;;11.6;83.58203;956.9082;;;;
2019/10/01 01:52:40;;;;;;;4.5;2;;;;;;;11.42;84.73535;956.8655;;;;
2019/10/01 01:55:06;;;;;;;4;2;;;;;;;11.46;84.3291;956.7698;;;;
2019/10/01 01:57:31;;;;;;;4.3;2.1;;;;;;;11.35;85.28418;956.6633;;;;
2019/10/01 01:59:56;;;;;;;4.8;2.2;;;;;;;11.44;84.26758;956.6642;;;;
2019/10/01 02:02:24;;;;;;;3.7;1.9;;;;;;;11.39;84.55762;956.6236;;;;
2019/10/01 02:04:48;;;;;;;5.7;2.1;;;;;;;11.53;83.53418;956.6456;;;;
2019/10/01 02:07:12;;;;;;;4.4;2.1;;;;;;;11.36;84.5752;956.6143;;;;
2019/10/01 02:09:37;;;;;;;4.2;2.3;;;;;;;11.35;84.03906;956.6192;;;;
2019/10/01 02:12:02;;;;;;;4.1;2.1;;;;;;;11.31;84.62207;956.5846;;;;
2019/10/01 02:14:27;;;;;;;4.5;2.1;;;;;;;11.4;83.82129;956.6174;;;;
2019/10/01 02:16:52;;;;;;;5.2;2.3;;;;;;;11.18;84.59766;956.565;;;;
2019/10/01 02:19:18;;;;;;;3.8;2.1;;;;;;;11.03;85.28027;956.5159;;;;
2019/10/01 02:21:43;;;;;;;4;2.1;;;;;;;11.15;85.9502;956.5695;;;;
2019/10/01 02:24:08;;;;;;;4.1;1.9;;;;;;;11.17;85.49121;956.5535;;;;
2019/10/01 02:26:34;;;;;;;3.1;1.9;;;;;;;11.25;84.58691;956.4763;;;;
2019/10/01 02:28:58;;;;;;;4.2;2;;;;;;;11.28;84.58008;956.4692;;;;
2019/10/01 02:31:23;;;;;;;3.7;1.9;;;;;;;11.24;84.66602;956.4001;;;;
2019/10/01 02:33:49;;;;;;;3;1.8;;;;;;;11.17;85.2373;956.3806;;;;
2019/10/01 02:36:14;;;;;;;3.6;1.8;;;;;;;11.31;84.56445;956.3415;;;;
2019/10/01 02:38:39;;;;;;;4.9;1.8;;;;;;;11.31;84.63379;956.2991;;;;
2019/10/01 02:41:05;;;;;;;3.9;1.9;;;;;;;11.31;84.3457;956.2526;;;;
2019/10/01 02:43:30;;;;;;;4.2;2.1;;;;;;;11.27;84.82227;956.2267;;;;
2019/10/01 02:45:56;;;;;;;7.4;2.2;;;;;;;11.25;85.00195;956.2397;;;;
2019/10/01 02:48:21;;;;;;;3.4;1.8;;;;;;;11.19;84.98926;956.2097;;;;
2019/10/01 02:50:47;;;;;;;4.1;2.2;;;;;;;11.23;84.54883;956.2402;;;;
2019/10/01 02:53:10;;;;;;;2.7;1.7;;;;;;;11.15;85.20117;956.2693;;;;
2019/10/01 02:55:37;;;;;;;2.9;1.9;;;;;;;11.01;85.67969;956.2606;;;;
2019/10/01 02:58:01;;;;;;;2.7;1.8;;;;;;;11.03;85.62598;956.233;;;;
2019/10/01 03:00:27;;;;;;;3;1.9;;;;;;;11.09;85.43066;956.2115;;;;
2019/10/01 03:02:51;;;;;;;2.9;1.7;;;;;;;11.18;85.01074;956.1955;;;;
2019/10/01 03:05:17;;;;;;;4.6;1.9;;;;;;;11.07;85.5791;956.1512;;;;
2019/10/01 03:07:44;;;;;;;4.1;1.8;;;;;;;10.96;86.32813;956.1498;;;;
2019/10/01 03:10:08;;;;;;;3.3;1.8;;;;;;;11.14;85.68359;956.0687;;;;
2019/10/01 03:12:33;;;;;;;4.2;1.9;;;;;;;11.3;84.49316;956.0647;;;;
2019/10/01 03:14:58;;;;;;;4.6;1.9;;;;;;;11.23;85.0791;955.998;;;;
2019/10/01 03:17:23;;;;;;;3.3;1.9;;;;;;;11.14;85.22266;956.0133;;;;
2019/10/01 03:19:48;;;;;;;3.6;1.7;;;;;;;11.23;85.00781;955.971;;;;
2019/10/01 03:24:38;;;;;;;5.9;1.7;;;;;;;11.18;85.11621;955.9443;;;;
2019/10/01 03:27:04;;;;;;;3.1;1.8;;;;;;;11.18;85.37012;955.8709;;;;
2019/10/01 03:29:29;;;;;;;4.1;1.9;;;;;;;11.07;85.84277;955.8585;;;;
2019/10/01 03:31:54;;;;;;;4.5;1.7;;;;;;;11.04;85.98535;955.8411;;;;
2019/10/01 03:34:19;;;;;;;5.3;2;;;;;;;10.91;86.33008;955.8956;;;;
2019/10/01 03:36:44;;;;;;;4.8;2;;;;;;;11;86.10645;955.8665;;;;
2019/10/01 03:39:10;;;;;;;3.3;2;;;;;;;10.96;86.13184;955.8116;;;;
2019/10/01 03:41:35;;;;;;;3.4;2;;;;;;;10.93;86.58594;955.7712;;;;
2019/10/01 03:44:00;;;;;;;5.8;2.1;;;;;;;10.97;86.58496;955.6811;;;;
2019/10/01 03:46:25;;;;;;;5.2;1.9;;;;;;;10.78;87.36328;955.6578;;;;
2019/10/01 03:48:51;;;;;;;5.4;2.1;;;;;;;10.84;87.14355;955.6487;;;;
2019/10/01 03:51:16;;;;;;;5;2.1;;;;;;;10.75;88.13867;955.6257;;;;
2019/10/01 03:53:41;;;;;;;3.9;2.2;;;;;;;10.73;87.87012;955.6481;;;;
2019/10/01 03:56:06;;;;;;;7.6;2.2;;;;;;;;;;;;;
2019/10/01 03:58:31;;;;;;;4.1;1.8;;;;;;;;;;;;;
